Weather observations for the past three days for
Sacramento, McClellan Airfield Airport
Metric (Imperial)
Date Time (pdt) Wind (kph) Vis. (km) Weather Sky Cond. Temperature (ºC) Relative Humidity Wind Chill (°C) Heat Index (°C) Pressure Precipitation (cm)
Air Dwpt 6 hour altimeter (cm) sea level (mb) 1 hr 3 hr 6 hr
Max. Min.
10 08:35 S 15 16.09 Fair CLR 16 13 83% 76.05 0.0
10 08:15 S 15 16.09 Fair CLR 16 13 83% 76.05 0.0
10 07:55 SE 15 16.09 Fair CLR 15 13 88% 76.02 0.0
10 07:35 S 13 16.09 Fair CLR 15 12 82% 76.02 0.0
10 07:15 SE 13 G 22 16.09 Fair CLR 14 12 88% 76.02 0.0
10 06:55 SE 17 16.09 Fair CLR 14 12 88% 76 0.0
10 06:35 SE 13 16.09 Fair CLR 13 12 94% 75.97 0.0
10 06:15 SE 13 16.09 Fair CLR 13 12 94% 75.97 0.0
10 05:55 S 13 16.09 Fair CLR 13 12 94% 75.95 0.0
10 05:35 SE 13 16.09 Fair CLR 13 12 94% 75.95 0.0
10 05:15 S 9 16.09 Fair CLR 13 12 94% 75.95 0.0
10 04:55 S 11 16.09 Fair CLR 14 12 88% 75.95 0.0
10 04:35 S 11 G 22 16.09 Fair CLR 14 12 88% 75.95 0.0
10 04:15 S 15 16.09 Fair CLR 14 12 88% 75.95 0.0
10 03:55 S 15 16.09 Fair CLR 14 12 88% 75.92 0.0
10 03:35 S 15 16.09 Fair CLR 15 13 88% 75.92 0.0
10 03:15 S 15 16.09 Fair CLR 15 13 88% 75.92 0.0
10 02:55 S 15 16.09 Fair CLR 15 13 88% 75.92 0.0
10 02:35 S 13 16.09 Fair CLR 16 13 83% 75.9 0.0
10 02:15 S 15 16.09 Fair CLR 16 13 83% 75.9 0.0
10 01:55 S 15 16.09 Fair CLR 16 13 83% 75.9 0.0
10 01:35 S 17 16.09 Fair CLR 16 13 83% 75.9 0.0
10 01:15 S 13 16.09 Fair CLR 17 13 77% 75.9 0.0
10 00:55 S 13 16.09 Fair CLR 17 13 77% 75.9 0.0
10 00:35 S 17 16.09 Fair CLR 18 13 73% 75.9 0.0
10 00:15 SE 15 16.09 Fair CLR 18 13 73% 75.9 0.0
09 23:55 S 17 16.09 Fair CLR 18 13 73% 75.9 0.0
09 23:35 SE 15 16.09 Fair CLR 18 13 73% 75.9 0.0
09 23:15 SE 13 16.09 Fair CLR 18 13 73% 75.9 0.0
09 22:55 S 11 16.09 Fair CLR 19 13 68% 75.9 0.0
09 22:35 SE 15 16.09 Fair CLR 19 13 68% 75.87 0.0
09 22:15 S 13 16.09 Fair CLR 19 13 68% 75.87 0.0
09 21:55 S 13 16.09 Fair CLR 20 13 64% 75.87 0.0
09 21:35 S 13 16.09 Fair CLR 21 14 64% 75.84 0.0
09 21:15 S 17 16.09 Fair CLR 21 14 64% 75.82 0.0
09 20:55 S 19 16.09 Fair CLR 22 14 61% 75.82 0.0
09 20:35 S 15 16.09 Fair CLR 23 14 57% 75.79 0.0
09 20:15 S 15 16.09 Fair CLR 24 15 57% 25 75.79 0.0
09 19:55 S 17 16.09 Fair CLR 26 16 54% 27 75.77 0.0
09 19:35 S 17 16.09 Fair CLR 26 16 54% 27 75.77 0.0
09 19:15 S 15 16.09 Fair CLR 28 16 48% 28 75.77 0.0
09 18:55 S 20 16.09 Fair CLR 28 16 48% 28 75.77 0.0
09 18:35 S 22 16.09 Fair CLR 29 15 43% 29 75.77 0.0
09 18:15 S 17 16.09 Fair CLR 30 15 40% 30 75.77 0.0
09 17:55 Calm 14.48 Fair CLR 32 10 26% 30 75.77 0.0
09 17:35 Vrbl 6 16.09 Fair CLR 31 11 29% 30 75.77 0.0
09 17:15 Vrbl 6 14.48 Fair CLR 32 11 27% 31 75.77 0.0
09 16:55 Vrbl 7 16.09 Fair CLR 31 11 29% 30 75.79 0.0
09 16:35 Vrbl 6 16.09 Fair CLR 31 10 27% 29 75.79 0.0
09 16:15 W 7 G 22 16.09 Fair CLR 31 10 27% 29 75.82 0.0
09 15:55 W 19 16.09 Fair CLR 31 12 31% 30 75.82 0.0
09 15:35 NW 9 G 20 16.09 Fair CLR 30 12 33% 29 75.84 0.0
09 15:15 Vrbl 7 16.09 Fair CLR 30 12 33% 29 75.87 0.0
09 14:55 W 7 G 19 16.09 Fair CLR 30 12 33% 29 75.87 0.0
09 14:35 SW 11 16.09 Fair CLR 30 13 35% 29 75.9 0.0
09 14:15 Vrbl 7 16.09 Fair CLR 29 13 37% 28 75.92 0.0
09 13:55 SW 13 16.09 Fair CLR 28 14 42% 28 75.92 0.0
09 13:35 Vrbl 7 14.48 Fair CLR 28 15 45% 28 75.95 0.0
09 13:15 Vrbl 6 16.09 Fair CLR 28 15 45% 28 75.95 0.0
09 12:55 Vrbl 7 14.48 Fair CLR 27 15 48% 27 75.97 0.0
09 12:35 Vrbl 6 16.09 Fair CLR 26 15 51% 27 76 0.0
09 12:15 Vrbl 6 16.09 Fair CLR 26 15 51% 27 76.02 0.0
09 11:55 W 9 16.09 Fair CLR 25 14 51% 26 76.02 0.0
09 11:35 Calm 16.09 Fair CLR 25 14 51% 26 76.05 0.0
09 11:15 SW 7 16.09 Fair CLR 23 14 57% 76.05 0.0
09 10:55 Vrbl 7 14.48 Fair CLR 23 14 57% 76.07 0.0
09 10:35 SE 7 16.09 Fair CLR 22 13 57% 76.07 0.0
09 10:15 Vrbl 7 16.09 Fair CLR 21 14 64% 76.07 0.0
09 09:50 Vrbl 6 16.09 Fair CLR 20 13 64% 76.07 0.0
09 09:35 Calm 16.09 Fair CLR 19 13 68% 76.07 0.0
09 09:15 S 7 16.09 Fair CLR 19 13 68% 76.1 0.0
09 08:55 Vrbl 7 16.09 Fair CLR 18 13 73% 76.1 0.0
09 08:35 Vrbl 6 16.09 Fair CLR 17 13 77% 76.07 0.0
09 08:15 SE 7 16.09 Fair CLR 16 13 83% 76.1 0.0
09 07:55 S 9 16.09 Fair CLR 16 13 83% 76.07 0.0
09 07:35 SE 9 16.09 Fair CLR 15 13 88% 76.07 0.0
09 07:15 SE 9 16.09 Fair CLR 15 12 82% 76.07 0.0
09 06:55 SE 11 16.09 Fair CLR 14 12 88% 76.07 0.0
09 06:35 SE 11 16.09 Fair CLR 14 12 88% 76.07 0.0
09 06:15 SE 9 16.09 Fair CLR 13 12 94% 76.05 0.0
09 05:55 SE 7 16.09 Fair CLR 13 12 94% 76.05 0.0
09 05:35 SE 9 16.09 Fair CLR 13 12 94% 76.05 0.0
09 05:15 S 11 16.09 Fair CLR 14 12 88% 76.02 0.0
09 04:55 S 9 16.09 Fair CLR 14 12 88% 76.05 0.0
09 04:35 SE 9 16.09 Fair CLR 13 12 94% 76.05 0.0
09 04:15 S 11 16.09 Fair CLR 14 12 88% 76.02 0.0
09 03:55 S 9 16.09 Fair CLR 14 13 94% 76.02 0.0
09 03:35 SE 11 16.09 Fair CLR 14 13 94% 76.02 0.0
09 03:15 SE 13 16.09 Fair CLR 15 13 88% 76.02 0.0
09 02:55 SE 11 16.09 Fair CLR 15 13 88% 76.05 0.0
09 02:35 SE 11 16.09 Fair CLR 15 13 88% 76.05 0.0
09 02:15 SE 9 16.09 Fair CLR 15 13 88% 76.05 0.0
09 01:55 S 9 16.09 Fair CLR 15 13 88% 76.05 0.0
09 01:35 SE 9 16.09 Fair CLR 16 13 83% 76.05 0.0
09 01:15 S 13 16.09 Fair CLR 16 13 83% 76.07 0.0
09 00:55 S 13 16.09 Fair CLR 16 14 88% 76.07 0.0
09 00:35 S 13 16.09 Fair CLR 16 13 83% 76.07 0.0
09 00:15 SE 13 16.09 Fair CLR 16 14 88% 76.07 0.0
08 23:55 SE 11 16.09 Fair CLR 17 14 83% 76.05 0.0
08 23:35 S 13 16.09 Fair CLR 17 14 83% 76.05 0.0
08 23:15 SE 13 16.09 Fair CLR 17 14 83% 76.05 0.0
08 22:55 SE 11 14.48 Fair CLR 18 14 78% 76.05 0.0
08 22:35 S 11 16.09 Fair CLR 19 15 78% 76.05 0.0
08 22:15 S 11 16.09 Fair CLR 19 15 78% 76.05 0.0
08 21:55 S 7 16.09 Fair CLR 20 15 73% 76.05 0.0
08 21:35 S 11 16.09 Fair CLR 20 15 73% 76.02 0.0
08 21:15 S 9 16.09 Fair CLR 21 15 69% 76.02 0.0
08 20:55 SW 11 16.09 Fair CLR 22 15 65% 76.02 0.0
08 20:35 SW 9 16.09 Fair CLR 23 16 65% 76 0.0
08 20:15 SW 13 16.09 Fair CLR 24 16 61% 25 76 0.0
08 19:55 SW 15 16.09 Fair CLR 24 16 61% 25 75.97 0.0
08 19:35 SW 11 16.09 Fair CLR 26 16 54% 27 75.97 0.0
08 19:15 SW 17 16.09 Fair CLR 26 16 54% 27 75.97 0.0
08 18:55 SW 15 16.09 Fair CLR 28 16 48% 28 75.97 0.0
08 18:35 SW 15 16.09 Fair CLR 29 15 43% 29 75.97 0.0
08 18:15 SW 9 16.09 Fair CLR 29 14 40% 29 75.97 0.0
08 17:55 Vrbl 7 16.09 Fair CLR 29 14 40% 29 76 0.0
08 17:35 W 9 16.09 Fair CLR 29 14 40% 29 76 0.0
08 17:15 NW 11 12.87 Fair CLR 29 14 40% 29 76.02 0.0
08 16:55 NW 11 16.09 Fair CLR 29 14 40% 29 76.02 0.0
08 16:35 Calm 14.48 Fair CLR 29 14 40% 29 76.05 0.0
08 16:15 W 7 16.09 Fair CLR 29 14 40% 29 76.05 0.0
08 15:55 Calm 16.09 Fair CLR 28 14 42% 28 76.07 0.0
08 15:35 W 6 16.09 Fair CLR 28 14 42% 28 76.1 0.0
08 15:15 Calm 16.09 Fair CLR 28 14 42% 28 76.12 0.0
08 14:55 W 9 16.09 Fair CLR 27 15 48% 27 76.15 0.0
08 14:35 Vrbl 9 G 20 16.09 Fair CLR 27 15 48% 27 76.17 0.0
08 14:15 Calm 16.09 Fair CLR 26 14 48% 26 76.2 0.0
08 13:55 N 9 16.09 Fair CLR 26 15 51% 27 76.2 0.0
08 13:35 Calm 16.09 Fair CLR 25 13 47% 26 76.23 0.0
08 13:15 Calm 16.09 Fair CLR 25 14 51% 26 76.23 0.0
08 12:55 Vrbl 9 16.09 Fair CLR 25 14 51% 26 76.25 0.0
08 12:35 NW 6 16.09 Fair CLR 24 14 54% 25 76.28 0.0
08 12:15 Calm 16.09 Fair CLR 23 13 53% 76.28 0.0
08 11:55 SW 9 16.09 Fair CLR 22 13 57% 76.3 0.0
08 11:35 SW 9 12.87 Fair CLR 21 13 60% 76.3 0.0
08 11:15 Calm 16.09 Fair CLR 21 13 60% 76.3 0.0
08 10:55 S 7 16.09 Fair CLR 20 13 64% 76.33 0.0
08 10:35 S 11 16.09 Fair CLR 19 13 68% 76.33 0.0
08 10:15 SE 13 16.09 Fair CLR 19 13 68% 76.33 0.0
08 09:55 SE 9 16.09 Fair CLR 18 13 73% 76.33 0.0
08 09:35 Vrbl 9 16.09 Fair CLR 17 13 77% 76.33 0.0
08 09:15 S 9 16.09 Fair CLR 16 13 83% 76.33 0.0
08 08:55 S 13 16.09 Fair CLR 15 13 88% 76.33 0.0
08 08:30 SE 11 16.09 Fair CLR 15 13 88% 76.33 0.0
08 08:15 SE 11 16.09 Fair CLR 14 13 94% 76.33 0.0
08 07:55 S 13 G 22 16.09 Fair CLR 14 12 88% 76.33 0.0
08 07:35 S 15 16.09 Fair CLR 13 12 94% 76.3 0.0
08 07:15 S 13 16.09 Fair CLR 13 12 94% 76.3 0.0
08 06:55 S 17 16.09 Fair CLR 12 12 100% 76.28 0.0
08 06:35 S 19 16.09 Fair CLR 12 12 100% 76.25 0.0
08 06:15 SE 11 16.09 Fair CLR 12 11 94% 76.25 0.0
08 05:55 S 13 16.09 Fair CLR 12 12 100% 76.25 0.0
08 05:35 S 15 16.09 Fair CLR 12 12 100% 76.25 0.0
08 05:15 S 13 16.09 Fair CLR 12 12 100% 76.25 0.0
08 04:50 SE 13 16.09 Fair CLR 12 12 100% 76.23 0.0
08 04:35 SE 13 16.09 Fair CLR 12 12 100% 76.23 0.0
08 04:15 SE 11 16.09 Fair CLR 12 12 100% 76.23 0.0
08 03:55 SE 13 16.09 Fair CLR 13 12 94% 76.23 0.0
08 03:35 SE 13 16.09 Fair CLR 13 13 100% 76.23 0.0
08 03:15 SE 15 16.09 Fair CLR 13 13 100% 76.23 0.0
08 02:55 SE 17 16.09 Fair CLR 13 13 100% 76.23 0.0
08 02:35 SE 13 16.09 Fair CLR 13 13 100% 76.2 0.0
08 02:15 S 13 16.09 Fair CLR 13 13 100% 76.2 0.0
08 01:55 SE 15 16.09 Fair CLR 14 13 94% 76.2 0.0
08 01:35 S 11 16.09 Fair CLR 14 13 94% 76.2 0.0
08 01:10 S 15 16.09 Fair CLR 15 14 94% 76.2 0.0
08 00:55 S 13 16.09 Fair CLR 15 14 94% 76.2 0.0
08 00:35 S 17 16.09 Fair CLR 15 14 94% 76.2 0.0
08 00:15 S 11 16.09 Fair CLR 15 14 94% 76.17 0.0
07 23:55 S 11 16.09 Fair CLR 16 14 88% 76.17 0.0
07 23:35 S 15 16.09 Fair CLR 16 14 88% 76.17 0.0
07 23:15 S 11 16.09 Fair CLR 16 14 88% 76.15 0.0
07 22:55 SE 17 16.09 Fair CLR 16 14 88% 76.15 0.0
07 22:35 S 13 16.09 Fair CLR 17 14 83% 76.15 0.0
07 22:15 S 13 16.09 Fair CLR 18 14 78% 76.15 0.0
07 21:55 S 15 16.09 Fair CLR 19 15 78% 76.15 0.0
07 21:35 S 13 16.09 Fair CLR 19 15 78% 76.12 0.0
07 21:15 S 13 16.09 Fair CLR 20 15 73% 76.12 0.0
07 20:55 S 13 16.09 Fair CLR 21 16 73% 76.1 0.0
07 20:35 S 15 16.09 Fair CLR 22 16 69% 76.07 0.0
07 20:15 S 11 16.09 Fair CLR 24 16 61% 25 76.07 0.0
07 19:55 S 19 16.09 Fair CLR 25 17 61% 26 76.05 0.0
07 19:35 SW 17 16.09 Fair CLR 26 17 58% 27 76.05 0.0
07 19:15 Calm 16.09 Fair CLR 28 15 45% 28 76.05 0.0
07 18:55 S 9 16.09 Fair CLR 28 15 45% 28 76.05 0.0
07 18:35 SW 7 16.09 Fair CLR 28 15 45% 28 76.05 0.0
07 18:15 SW 6 16.09 Fair CLR 28 15 45% 28 76.05 0.0
07 17:55 SW 7 16.09 Fair CLR 28 15 45% 28 76.07 0.0
07 17:35 Vrbl 9 16.09 Fair CLR 28 15 45% 28 76.07 0.0
07 17:15 Vrbl 9 16.09 Fair CLR 28 15 45% 28 76.07 0.0
07 16:55 Vrbl 6 16.09 Fair CLR 28 15 45% 28 76.07 0.0
07 16:35 Calm 16.09 Fair CLR 28 15 45% 28 76.1 0.0
07 16:15 Calm 16.09 Fair CLR 28 15 45% 28 76.1 0.0
07 15:55 Calm 16.09 Fair CLR 28 15 45% 28 76.12 0.0
07 15:35 Calm 16.09 Fair CLR 27 15 48% 27 76.15 0.0
07 15:15 SW 7 G 19 16.09 Fair CLR 27 15 48% 27 76.17 0.0
07 14:55 N 7 16.09 Fair CLR 27 15 48% 27 76.2 0.0
07 14:35 Calm 16.09 Fair CLR 26 15 51% 27 76.23 0.0
07 14:15 Calm 16.09 Fair CLR 25 14 51% 26 76.25 0.0
07 13:55 Calm 16.09 Fair CLR 25 15 54% 26 76.28 0.0
07 13:35 Calm 16.09 Fair CLR 25 14 51% 26 76.28 0.0
07 13:15 Vrbl 6 16.09 Fair CLR 25 14 51% 26 76.3 0.0
07 12:55 Vrbl 9 16.09 Fair CLR 24 15 57% 25 76.3 0.0
07 12:35 Vrbl 7 16.09 Fair CLR 23 15 61% 76.33 0.0
07 12:15 Vrbl 6 16.09 Fair CLR 23 15 61% 76.35 0.0
07 11:55 SW 6 16.09 Fair CLR 22 15 65% 76.38 0.0
07 11:35 Calm 16.09 NULL NULL 21 14 64% 76.38 0.0
07 11:15 Vrbl 9 0.00 NULL NULL 21 14 64% 76.4 0.0
07 10:55 Calm 16.09 NULL NULL 20 14 69% 76.4 0.0 0.15
07 09:35 S 6 0.00 Fair CLR 18 14 78% 76.4 0.0
07 09:15 Vrbl 7 0.00 Fair CLR 17 14 83% 76.4 0.0
07 08:55 S 7 16.09 Fair CLR 16 14 88% 76.43 0.0
Date Time (pdt) Wind (kph) Vis. (km) Weather Sky Cond. Air Dwpt Max. Min. Relative Humidity Wind Chill (°C) Heat Index (°C) altimeter (cm) sea level (mb) 1 hr 3 hr 6 hr
6 hour
Temperature (ºC) Pressure Precipitation (cm)